Dades meteomassalio
Diari Summary for Gener 13, 2018 Units:  Both    English   Metric
« Previous Day
Next Day »
Diari Semanal Mensual Anual Personalitzat
  Maxima: Minima: Mijana:
Temperatura: TemperatureC °F /  -17.8 °C -2.2 °F /  -19 °C 3.1 °F /  -16.1 °C
Rosada: DewpointC °F /  -17.8 °C -3.5 °F /  -19.7 °C 1.2 °F /  -17.1 °C
Humitat: Humidity % 74 % 86 %
Velocitat del vent: WindSpeedKMH mph /  0 km/h - 0.8 mph /  1.3 km/h
Racha vent: WindSpeedGustKMH mph /  0 km/h - -
Vent:- - South
Pressio: PressurehPa in /  0 hPa 1018.5 in /  34486.4 hPa -
Pluja: 1.3 in /  33.02 mm    
Historical Graphs
 
 
Tabular Data for Gener 13, 2018
Time Temperature Dew Point Pressure Wind Wind Speed Wind Gust Humidity Rainfall Rate (Hourly) solar Conditions
TemperatureC °F /  -17.8 °C DewpointC °F /  -17.8 °C PressurehPa in /  0 hPa Calm     Humidity % HourlyPrecipMM in /  0 mm SolarRadiationWatts/m^2 W/m2 Conditions
00:00 2.2 °F /  -16.6 °C 0.1 °F /  -17.7 °C 1026.3 in /  34750.5 hPa Calm     86 % 0.0 in /  0 mm 0.0 W/m2 CLR
00:12 1.7 °F /  -16.8 °C -0.3 °F /  -17.9 °C 1026.3 in /  34750.5 hPa Calm     87 % 0.0 in /  0 mm 0.0 W/m2 CLR
00:21 1.1 °F /  -17.2 °C -0.8 °F /  -18.2 °C 1026.3 in /  34750.5 hPa Calm     87 % 0.0 in /  0 mm 0.0 W/m2 CLR
00:29 1.1 °F /  -17.2 °C -0.8 °F /  -18.2 °C 1026.3 in /  34750.5 hPa Calm     87 % 0.0 in /  0 mm 0.0 W/m2 CLR
00:36 1.7 °F /  -16.8 °C -0.3 °F /  -17.9 °C 1026.3 in /  34750.5 hPa Calm     87 % 0.0 in /  0 mm 0.0 W/m2 CLR
00:46 1.1 °F /  -17.2 °C -0.8 °F /  -18.2 °C 1026.3 in /  34750.5 hPa Calm     87 % 0.0 in /  0 mm 0.0 W/m2 CLR
00:54 1.1 °F /  -17.2 °C -0.7 °F /  -18.2 °C 1026.0 in /  34740.4 hPa Calm     88 % 0.0 in /  0 mm 0.0 W/m2 CLR
01:11 1.1 °F /  -17.2 °C -0.7 °F /  -18.2 °C 1026.0 in /  34740.4 hPa Calm     88 % 0.0 in /  0 mm 0.0 W/m2 CLR
01:18 0.6 °F /  -17.4 °C -1.2 °F /  -18.4 °C 1026.0 in /  34740.4 hPa Calm     88 % 0.0 in /  0 mm 0.0 W/m2 CLR
01:26 0.6 °F /  -17.4 °C -1.2 °F /  -18.4 °C 1026.0 in /  34740.4 hPa Calm     88 % 0.0 in /  0 mm 0.0 W/m2 CLR
01:42 0.0 °F /  -17.8 °C -1.6 °F /  -18.7 °C 1025.6 in /  34726.8 hPa Calm     89 % 0.0 in /  0 mm 0.0 W/m2 CLR
01:54 0.0 °F /  -17.8 °C -1.6 °F /  -18.7 °C 1025.6 in /  34726.8 hPa Calm     89 % 0.0 in /  0 mm 0.0 W/m2 CLR
02:03 0.0 °F /  -17.8 °C -1.4 °F /  -18.6 °C 1025.3 in /  34716.7 hPa Calm     90 % 0.0 in /  0 mm 0.0 W/m2 CLR
02:12 0.0 °F /  -17.8 °C -1.4 °F /  -18.6 °C 1025.3 in /  34716.7 hPa Calm     90 % 0.0 in /  0 mm 0.0 W/m2 CLR
02:21 0.0 °F /  -17.8 °C -1.4 °F /  -18.6 °C 1024.9 in /  34703.1 hPa Calm     90 % 0.0 in /  0 mm 0.0 W/m2 CLR
02:26 0.0 °F /  -17.8 °C -1.4 °F /  -18.6 °C 1024.9 in /  34703.1 hPa Calm     90 % 0.0 in /  0 mm 0.0 W/m2 CLR
02:34 -0.6 °F /  -18.1 °C -2.0 °F /  -18.9 °C 1024.9 in /  34703.1 hPa Calm     90 % 0.0 in /  0 mm 0.0 W/m2 CLR
02:45 -0.6 °F /  -18.1 °C -2.0 °F /  -18.9 °C 1024.9 in /  34703.1 hPa Calm     90 % 0.0 in /  0 mm 0.0 W/m2 CLR
03:00 -0.6 °F /  -18.1 °C -2.0 °F /  -18.9 °C 1024.9 in /  34703.1 hPa Calm     90 % 0.0 in /  0 mm 0.0 W/m2 CLR
03:06 -1.1 °F /  -18.4 °C -2.6 °F /  -19.2 °C 1024.9 in /  34703.1 hPa Calm     90 % 0.0 in /  0 mm 0.0 W/m2 CLR
03:22 -0.6 °F /  -18.1 °C -1.8 °F /  -18.8 °C 1024.9 in /  34703.1 hPa Calm     91 % 0.0 in /  0 mm 0.0 W/m2 CLR
03:28 -0.6 °F /  -18.1 °C -1.8 °F /  -18.8 °C 1024.9 in /  34703.1 hPa Calm     91 % 0.0 in /  0 mm 0.0 W/m2 CLR
03:48 -0.6 °F /  -18.1 °C -1.8 °F /  -18.8 °C 1024.9 in /  34703.1 hPa Calm     91 % 0.0 in /  0 mm 0.0 W/m2 CLR
04:04 -0.6 °F /  -18.1 °C -1.8 °F /  -18.8 °C 1024.9 in /  34703.1 hPa Calm     91 % 0.0 in /  0 mm 0.0 W/m2 CLR
04:16 -1.1 °F /  -18.4 °C -2.4 °F /  -19.1 °C 1024.6 in /  34693 hPa Calm     91 % 0.0 in /  0 mm 0.0 W/m2 CLR
04:22 -1.1 °F /  -18.4 °C -2.4 °F /  -19.1 °C 1024.6 in /  34693 hPa Calm     91 % 0.0 in /  0 mm 0.0 W/m2 CLR
04:52 -1.1 °F /  -18.4 °C -2.4 °F /  -19.1 °C 1024.3 in /  34682.8 hPa Calm     91 % 0.0 in /  0 mm 0.0 W/m2 CLR
04:58 -1.1 °F /  -18.4 °C -2.4 °F /  -19.1 °C 1024.3 in /  34682.8 hPa Calm     91 % 0.0 in /  0 mm 0.0 W/m2 CLR
05:07 -1.1 °F /  -18.4 °C -2.4 °F /  -19.1 °C 1024.3 in /  34682.8 hPa Calm     91 % 0.0 in /  0 mm 0.0 W/m2 CLR
05:16 -1.1 °F /  -18.4 °C -2.4 °F /  -19.1 °C 1024.3 in /  34682.8 hPa Calm     91 % 0.0 in /  0 mm 0.0 W/m2 CLR
05:34 -1.7 °F /  -18.7 °C -2.9 °F /  -19.4 °C 1023.9 in /  34669.3 hPa Calm     91 % 0.0 in /  0 mm 0.0 W/m2 CLR
05:39 -1.7 °F /  -18.7 °C -2.9 °F /  -19.4 °C 1023.9 in /  34669.3 hPa Calm     91 % 0.0 in /  0 mm 0.0 W/m2 CLR
05:46 -1.7 °F /  -18.7 °C -2.9 °F /  -19.4 °C 1023.6 in /  34659.1 hPa Calm     91 % 0.0 in /  0 mm 0.0 W/m2 CLR
05:52 -2.2 °F /  -19 °C -3.5 °F /  -19.7 °C 1023.6 in /  34659.1 hPa Calm     91 % 0.0 in /  0 mm 0.0 W/m2 CLR
06:05 -2.2 °F /  -19 °C -3.3 °F /  -19.6 °C 1023.2 in /  34645.6 hPa Calm     92 % 0.0 in /  0 mm 0.0 W/m2 CLR
06:17 -2.2 °F /  -19 °C -3.3 °F /  -19.6 °C 1023.6 in /  34659.1 hPa Calm     92 % 0.0 in /  0 mm 0.0 W/m2 CLR
06:44 -2.2 °F /  -19 °C -3.3 °F /  -19.6 °C 1023.6 in /  34659.1 hPa Calm     92 % 0.0 in /  0 mm 0.0 W/m2 CLR
06:55 -2.2 °F /  -19 °C -3.3 °F /  -19.6 °C 1023.2 in /  34645.6 hPa Calm     92 % 0.0 in /  0 mm 0.0 W/m2 CLR
07:14 -2.2 °F /  -19 °C -3.3 °F /  -19.6 °C 1023.2 in /  34645.6 hPa Calm     92 % 0.0 in /  0 mm 0.0 W/m2 CLR
07:23 -2.2 °F /  -19 °C -3.3 °F /  -19.6 °C 1023.2 in /  34645.6 hPa Calm     92 % 0.0 in /  0 mm 0.0 W/m2 CLR
07:36 -1.7 °F /  -18.7 °C -2.8 °F /  -19.3 °C 1022.9 in /  34635.4 hPa Calm     92 % 0.0 in /  0 mm 0.0 W/m2 CLR
07:56 -1.7 °F /  -18.7 °C -2.8 °F /  -19.3 °C 1022.9 in /  34635.4 hPa Calm     92 % 0.0 in /  0 mm 0.0 W/m2 CLR
08:04 -1.7 °F /  -18.7 °C -2.8 °F /  -19.3 °C 1022.9 in /  34635.4 hPa Calm     92 % 0.0 in /  0 mm 0.0 W/m2 CLR
08:16 -1.7 °F /  -18.7 °C -2.8 °F /  -19.3 °C 1022.9 in /  34635.4 hPa Calm     92 % 0.0 in /  0 mm 7.0 W/m2 OVC
09:03 -1.7 °F /  -18.7 °C -2.8 °F /  -19.3 °C 1023.2 in /  34645.6 hPa Calm     92 % 0.0 in /  0 mm 56.0 W/m2 SCT
09:09 -1.1 °F /  -18.4 °C -2.2 °F /  -19 °C 1023.2 in /  34645.6 hPa Calm     92 % 0.0 in /  0 mm 74.0 W/m2 FEW
09:25 -1.1 °F /  -18.4 °C -2.2 °F /  -19 °C 1023.2 in /  34645.6 hPa Calm     92 % 0.0 in /  0 mm 49.0 W/m2 FEW
09:37 -0.6 °F /  -18.1 °C -1.7 °F /  -18.7 °C 1023.2 in /  34645.6 hPa Calm     92 % 0.0 in /  0 mm 83.0 W/m2 FEW
10:09 0.0 °F /  -17.8 °C -1.3 °F /  -18.5 °C 1023.2 in /  34645.6 hPa Calm     91 % 0.3 in /  7.62 mm 123.0 W/m2 CLR
10:14 0.0 °F /  -17.8 °C -1.3 °F /  -18.5 °C 1023.2 in /  34645.6 hPa Calm     91 % 0.3 in /  7.62 mm 218.0 W/m2 CLR
10:20 0.6 °F /  -17.4 °C -0.7 °F /  -18.2 °C 1023.2 in /  34645.6 hPa Calm     91 % 0.3 in /  7.62 mm 218.0 W/m2 CLR
10:27 1.1 °F /  -17.2 °C -0.3 °F /  -17.9 °C 1023.2 in /  34645.6 hPa Calm     90 % 0.3 in /  7.62 mm 195.0 W/m2 CLR
10:39 1.7 °F /  -16.8 °C 0.1 °F /  -17.7 °C 1023.2 in /  34645.6 hPa Calm     89 % 0.3 in /  7.62 mm 330.0 W/m2 CLR
10:50 2.2 °F /  -16.6 °C 0.3 °F /  -17.6 °C 1023.2 in /  34645.6 hPa Calm     87 % 0.3 in /  7.62 mm 183.0 W/m2 CLR
11:07 3.9 °F /  -15.6 °C 1.6 °F /  -16.9 °C 1023.6 in /  34659.1 hPa Calm     85 % 0.0 in /  0 mm 193.0 W/m2 CLR
11:15 4.4 °F /  -15.3 °C 2.0 °F /  -16.7 °C 1023.2 in /  34645.6 hPa Calm     84 % 0.0 in /  0 mm 179.0 W/m2 CLR
11:25 4.4 °F /  -15.3 °C 1.8 °F /  -16.8 °C 1023.2 in /  34645.6 hPa Calm     83 % 0.0 in /  0 mm 274.0 W/m2 CLR
12:10 7.2 °F /  -13.8 °C 3.4 °F /  -15.9 °C 1022.6 in /  34625.2 hPa Calm     77 % 0.0 in /  0 mm 439.0 W/m2 CLR
12:26 8.3 °F /  -13.2 °C 3.9 °F /  -15.6 °C 1022.2 in /  34611.7 hPa East 8.0 mph /  12.9 km/h 8.0 mph /  12.9 km/h 74 % 0.0 in /  0 mm 392.0 W/m2 CLR
12:31 8.3 °F /  -13.2 °C 4.2 °F /  -15.4 °C 1022.2 in /  34611.7 hPa East 5.6 mph /  9 km/h 5.6 mph /  9 km/h 75 % 0.0 in /  0 mm 496.0 W/m2 CLR
12:42 8.3 °F /  -13.2 °C 4.2 °F /  -15.4 °C 1021.9 in /  34601.5 hPa NE 5.6 mph /  9 km/h 5.6 mph /  9 km/h 75 % 0.0 in /  0 mm 355.0 W/m2 CLR
12:56 8.3 °F /  -13.2 °C 4.3 °F /  -15.4 °C 1021.6 in /  34591.4 hPa ENE 5.6 mph /  9 km/h 5.6 mph /  9 km/h 76 % 0.0 in /  0 mm 339.0 W/m2 CLR
13:03 8.3 °F /  -13.2 °C 4.6 °F /  -15.2 °C 1021.6 in /  34591.4 hPa ENE 9.3 mph /  15 km/h 9.3 mph /  15 km/h 77 % 0.0 in /  0 mm 248.0 W/m2 CLR
13:08 8.3 °F /  -13.2 °C 4.6 °F /  -15.2 °C 1021.6 in /  34591.4 hPa ENE 9.3 mph /  15 km/h 9.3 mph /  15 km/h 77 % 0.0 in /  0 mm 230.0 W/m2 CLR
13:27 7.8 °F /  -13.4 °C 4.4 °F /  -15.3 °C 1020.9 in /  34567.7 hPa ENE 5.6 mph /  9 km/h 5.6 mph /  9 km/h 79 % 0.0 in /  0 mm 134.0 W/m2 CLR
13:34 7.8 °F /  -13.4 °C 4.4 °F /  -15.3 °C 1021.2 in /  34577.8 hPa ENE 3.7 mph /  6 km/h 3.7 mph /  6 km/h 79 % 0.0 in /  0 mm 132.0 W/m2 CLR
13:39 7.8 °F /  -13.4 °C 4.4 °F /  -15.3 °C 1020.9 in /  34567.7 hPa ENE 5.6 mph /  9 km/h 5.6 mph /  9 km/h 79 % 0.0 in /  0 mm 128.0 W/m2 CLR
13:51 7.8 °F /  -13.4 °C 4.6 °F /  -15.2 °C 1020.9 in /  34567.7 hPa Calm     80 % 0.0 in /  0 mm 113.0 W/m2 CLR
14:00 7.8 °F /  -13.4 °C 4.6 °F /  -15.2 °C 1020.5 in /  34554.1 hPa Calm     80 % 0.0 in /  0 mm 125.0 W/m2 CLR
14:08 7.8 °F /  -13.4 °C 4.7 °F /  -15.2 °C 1020.5 in /  34554.1 hPa Calm     81 % 0.0 in /  0 mm 188.0 W/m2 CLR
14:18 7.8 °F /  -13.4 °C 4.7 °F /  -15.2 °C 1020.2 in /  34544 hPa East 1.9 mph /  3.1 km/h 1.9 mph /  3.1 km/h 81 % 0.0 in /  0 mm 146.0 W/m2 CLR
14:29 7.2 °F /  -13.8 °C 4.2 °F /  -15.4 °C 1019.9 in /  34533.8 hPa ENE 5.6 mph /  9 km/h 5.6 mph /  9 km/h 81 % 0.0 in /  0 mm 109.0 W/m2 CLR
14:54 7.8 °F /  -13.4 °C 4.9 °F /  -15.1 °C 1019.9 in /  34533.8 hPa Calm     82 % 0.0 in /  0 mm 116.0 W/m2 CLR
15:02 7.8 °F /  -13.4 °C 4.9 °F /  -15.1 °C 1019.9 in /  34533.8 hPa Calm     82 % 0.0 in /  0 mm 111.0 W/m2 CLR
15:10 7.8 °F /  -13.4 °C 5.1 °F /  -14.9 °C 1019.9 in /  34533.8 hPa Calm     83 % 0.0 in /  0 mm 95.0 W/m2 CLR
15:18 7.8 °F /  -13.4 °C 5.1 °F /  -14.9 °C 1019.9 in /  34533.8 hPa Calm     83 % 0.0 in /  0 mm 109.0 W/m2 CLR
15:29 7.8 °F /  -13.4 °C 4.9 °F /  -15.1 °C 1019.5 in /  34520.3 hPa North 3.7 mph /  6 km/h 3.7 mph /  6 km/h 82 % 0.0 in /  0 mm 95.0 W/m2 CLR
15:35 7.8 °F /  -13.4 °C 5.1 °F /  -14.9 °C 1019.2 in /  34510.1 hPa Calm     83 % 0.0 in /  0 mm 102.0 W/m2 CLR
15:49 7.8 °F /  -13.4 °C 5.1 °F /  -14.9 °C 1019.2 in /  34510.1 hPa Calm     83 % 0.0 in /  0 mm 102.0 W/m2 CLR
15:54 7.8 °F /  -13.4 °C 5.1 °F /  -14.9 °C 1019.2 in /  34510.1 hPa Calm     83 % 0.0 in /  0 mm 107.0 W/m2 CLR
16:19 7.8 °F /  -13.4 °C 5.1 °F /  -14.9 °C 1019.2 in /  34510.1 hPa Calm     83 % 0.0 in /  0 mm 195.0 W/m2 CLR
16:25 7.8 °F /  -13.4 °C 5.1 °F /  -14.9 °C 1018.8 in /  34496.6 hPa Calm     83 % 0.0 in /  0 mm 322.0 W/m2 CLR
16:33 7.8 °F /  -13.4 °C 4.9 °F /  -15.1 °C 1019.2 in /  34510.1 hPa Calm     82 % 0.0 in /  0 mm 102.0 W/m2 CLR
16:39 7.8 °F /  -13.4 °C 4.9 °F /  -15.1 °C 1019.2 in /  34510.1 hPa Calm     82 % 0.0 in /  0 mm 51.0 W/m2 FEW
16:47 7.2 °F /  -13.8 °C 4.5 °F /  -15.3 °C 1018.8 in /  34496.6 hPa Calm     83 % 0.0 in /  0 mm 46.0 W/m2 SCT
16:56 7.2 °F /  -13.8 °C 4.5 °F /  -15.3 °C 1018.5 in /  34486.4 hPa Calm     83 % 0.0 in /  0 mm 67.0 W/m2 FEW
17:03 7.2 °F /  -13.8 °C 4.5 °F /  -15.3 °C 1018.5 in /  34486.4 hPa Calm     83 % 0.0 in /  0 mm 35.0 W/m2 BKN
17:10 6.7 °F /  -14.1 °C 4.0 °F /  -15.6 °C 1018.5 in /  34486.4 hPa Calm     83 % 0.0 in /  0 mm 28.0 W/m2 BKN
17:17 6.7 °F /  -14.1 °C 4.0 °F /  -15.6 °C 1018.5 in /  34486.4 hPa Calm     83 % 0.0 in /  0 mm 33.0 W/m2 BKN
17:22 6.1 °F /  -14.4 °C 3.4 °F /  -15.9 °C 1018.5 in /  34486.4 hPa Calm     83 % 0.0 in /  0 mm 26.0 W/m2 BKN
17:40 5.0 °F /  -15 °C 2.5 °F /  -16.4 °C 1018.5 in /  34486.4 hPa Calm     84 % 0.0 in /  0 mm 9.0 W/m2 BKN
17:46 4.4 °F /  -15.3 °C 2.2 °F /  -16.6 °C 1018.5 in /  34486.4 hPa Calm     85 % 0.0 in /  0 mm 5.0 W/m2 OVC
17:55 3.9 °F /  -15.6 °C 1.6 °F /  -16.9 °C 1018.8 in /  34496.6 hPa NNW 5.6 mph /  9 km/h 5.6 mph /  9 km/h 85 % 0.0 in /  0 mm 0.0 W/m2 OVC
18:11 4.4 °F /  -15.3 °C 2.4 °F /  -16.4 °C 1018.8 in /  34496.6 hPa NNW 11.1 mph /  17.9 km/h 11.1 mph /  17.9 km/h 87 % 0.0 in /  0 mm 0.0 W/m2 CLR
18:32 3.9 °F /  -15.6 °C 2.1 °F /  -16.6 °C 1018.8 in /  34496.6 hPa Calm     88 % 0.0 in /  0 mm 0.0 W/m2 CLR
18:38 3.9 °F /  -15.6 °C 2.1 °F /  -16.6 °C 1019.2 in /  34510.1 hPa Calm     88 % 0.0 in /  0 mm 0.0 W/m2 CLR
18:44 3.9 °F /  -15.6 °C 2.1 °F /  -16.6 °C 1019.5 in /  34520.3 hPa Calm     88 % 0.0 in /  0 mm 0.0 W/m2 CLR
19:02 3.9 °F /  -15.6 °C 2.2 °F /  -16.6 °C 1019.5 in /  34520.3 hPa Calm     89 % 0.0 in /  0 mm 0.0 W/m2 CLR
19:08 4.4 °F /  -15.3 °C 2.8 °F /  -16.2 °C 1019.5 in /  34520.3 hPa Calm     89 % 0.0 in /  0 mm 0.0 W/m2 CLR
19:14 4.4 °F /  -15.3 °C 2.8 °F /  -16.2 °C 1019.5 in /  34520.3 hPa Calm     89 % 0.0 in /  0 mm 0.0 W/m2 CLR
19:30 4.4 °F /  -15.3 °C 2.8 °F /  -16.2 °C 1019.2 in /  34510.1 hPa Calm     89 % 0.0 in /  0 mm 0.0 W/m2 CLR
19:38 4.4 °F /  -15.3 °C 2.8 °F /  -16.2 °C 1019.2 in /  34510.1 hPa Calm     89 % 0.0 in /  0 mm 0.0 W/m2 CLR
20:19 3.9 °F /  -15.6 °C 2.2 °F /  -16.6 °C 1019.2 in /  34510.1 hPa West 1.9 mph /  3.1 km/h 1.9 mph /  3.1 km/h 89 % 0.0 in /  0 mm 0.0 W/m2 CLR
20:24 4.4 °F /  -15.3 °C 2.8 °F /  -16.2 °C 1019.2 in /  34510.1 hPa Calm     89 % 0.0 in /  0 mm 0.0 W/m2 CLR
20:30 4.4 °F /  -15.3 °C 2.8 °F /  -16.2 °C 1019.2 in /  34510.1 hPa Calm     89 % 0.0 in /  0 mm 0.0 W/m2 CLR
20:46 5.0 °F /  -15 °C 3.3 °F /  -15.9 °C 1019.2 in /  34510.1 hPa Calm     89 % 0.0 in /  0 mm 0.0 W/m2 CLR
21:04 4.4 °F /  -15.3 °C 2.8 °F /  -16.2 °C 1019.2 in /  34510.1 hPa Calm     89 % 0.0 in /  0 mm 0.0 W/m2 CLR
21:13 4.4 °F /  -15.3 °C 2.8 °F /  -16.2 °C 1019.2 in /  34510.1 hPa Calm     89 % 0.0 in /  0 mm 0.0 W/m2 CLR
21:19 4.4 °F /  -15.3 °C 2.8 °F /  -16.2 °C 1019.2 in /  34510.1 hPa Calm     89 % 0.0 in /  0 mm 0.0 W/m2 CLR
21:35 5.0 °F /  -15 °C 3.2 °F /  -16 °C 1019.9 in /  34533.8 hPa NW 3.7 mph /  6 km/h 3.7 mph /  6 km/h 88 % 0.0 in /  0 mm 0.0 W/m2 CLR
21:42 5.0 °F /  -15 °C 3.2 °F /  -16 °C 1019.9 in /  34533.8 hPa NW 5.6 mph /  9 km/h 5.6 mph /  9 km/h 88 % 0.0 in /  0 mm 0.0 W/m2 CLR
22:00 5.0 °F /  -15 °C 3.2 °F /  -16 °C 1019.9 in /  34533.8 hPa Calm     88 % 0.3 in /  7.62 mm 0.0 W/m2 RA
22:06 5.0 °F /  -15 °C 3.3 °F /  -15.9 °C 1019.9 in /  34533.8 hPa WNW 1.9 mph /  3.1 km/h 1.9 mph /  3.1 km/h 89 % 0.5 in /  12.7 mm 0.0 W/m2 RA
22:13 5.0 °F /  -15 °C 3.3 °F /  -15.9 °C 1020.2 in /  34544 hPa Calm     89 % 0.5 in /  12.7 mm 0.0 W/m2 CLR
22:22 5.0 °F /  -15 °C 3.5 °F /  -15.8 °C 1019.9 in /  34533.8 hPa Calm     90 % 0.5 in /  12.7 mm 0.0 W/m2 CLR
22:40 5.0 °F /  -15 °C 3.5 °F /  -15.8 °C 1019.9 in /  34533.8 hPa Calm     90 % 0.8 in /  20.32 mm 0.0 W/m2 CLR
22:49 4.4 °F /  -15.3 °C 3.1 °F /  -16.1 °C 1019.9 in /  34533.8 hPa Calm     91 % 0.8 in /  20.32 mm 0.0 W/m2 CLR
23:02 4.4 °F /  -15.3 °C 3.1 °F /  -16.1 °C 1019.9 in /  34533.8 hPa Calm     91 % 0.5 in /  12.7 mm 0.0 W/m2 CLR
23:15 4.4 °F /  -15.3 °C 3.1 °F /  -16.1 °C 1019.9 in /  34533.8 hPa Calm     91 % 0.3 in /  7.62 mm 0.0 W/m2 CLR
23:27 5.0 °F /  -15 °C 3.8 °F /  -15.7 °C 1019.5 in /  34520.3 hPa West 5.6 mph /  9 km/h 5.6 mph /  9 km/h 92 % 0.3 in /  7.62 mm 0.0 W/m2 CLR
23:47 5.0 °F /  -15 °C 3.7 °F /  -15.7 °C 1019.5 in /  34520.3 hPa Calm     91 % 0.3 in /  7.62 mm 0.0 W/m2 RA
23:54 5.0 °F /  -15 °C 3.7 °F /  -15.7 °C 1019.5 in /  34520.3 hPa Calm     91 % 0.3 in /  7.62 mm 0.0 W/m2 CLR
23:59 5.0 °F /  -15 °C 3.7 °F /  -15.7 °C 1019.5 in /  34520.3 hPa Calm     91 % 0.3 in /  7.62 mm 0.0 W/m2 CLR
Lo Temps de Massalio
Compliments of Weather Underground - 768 kb